Evans, Louisiana
Current Conditions -  °F | °C
As of 6:15 PM on Monday 24 Nov 2014 (Local Time) from KDRI Reporting Station
Clear Clear  
Wind Chill: 49°   Ceiling: Unl
Heat Index: 49°   Visibility: 10mi
Dew Point: 41°   Wind: 0mph
Humidity: 74%   Direction: NA
Pressure: 30.06"   Gusts: NA
Location:  30.99°N, 93.5°W
Report Text: KDRI 250015Z AUTO 00000KT 10SM CLR 09/05 A3006 RMK AO2 T00940049
Loading
Personal Weather Stations






























Interactive Weather Map New forecast layout! Learn more

10-Day Weather Forecast

Advertisements
Track Severe Weather on mobile